sensor_id;sensor_type;location;lat;lon;timestamp;P1;durP1;ratioP1;P2;durP2;ratioP2
1082;SDS011;530;51.448;7.238;2022-07-23T00:00:14;11.93;;;8.80;;
1082;SDS011;530;51.448;7.238;2022-07-23T00:02:40;11.97;;;9.77;;
1082;SDS011;530;51.448;7.238;2022-07-23T00:05:06;10.80;;;8.90;;
1082;SDS011;530;51.448;7.238;2022-07-23T00:07:32;10.50;;;9.37;;
1082;SDS011;530;51.448;7.238;2022-07-23T00:09:58;11.87;;;9.50;;
1082;SDS011;530;51.448;7.238;2022-07-23T00:12:24;12.07;;;10.30;;
1082;SDS011;530;51.448;7.238;2022-07-23T00:14:49;11.10;;;9.27;;
1082;SDS011;530;51.448;7.238;2022-07-23T00:17:15;10.90;;;9.80;;
1082;SDS011;530;51.448;7.238;2022-07-23T00:19:41;10.43;;;9.50;;
1082;SDS011;530;51.448;7.238;2022-07-23T00:22:07;10.70;;;8.60;;
1082;SDS011;530;51.448;7.238;2022-07-23T00:24:32;13.30;;;10.03;;
1082;SDS011;530;51.448;7.238;2022-07-23T00:26:58;11.27;;;9.93;;
1082;SDS011;530;51.448;7.238;2022-07-23T00:29:24;12.03;;;10.80;;
1082;SDS011;530;51.448;7.238;2022-07-23T00:31:49;16.30;;;11.17;;
1082;SDS011;530;51.448;7.238;2022-07-23T00:34:15;12.87;;;10.60;;
1082;SDS011;530;51.448;7.238;2022-07-23T00:36:41;10.60;;;9.50;;
1082;SDS011;530;51.448;7.238;2022-07-23T00:39:06;13.53;;;10.53;;
1082;SDS011;530;51.448;7.238;2022-07-23T00:41:32;12.43;;;9.73;;
1082;SDS011;530;51.448;7.238;2022-07-23T00:46:50;11.60;;;9.93;;
1082;SDS011;530;51.448;7.238;2022-07-23T00:49:28;10.93;;;9.83;;
1082;SDS011;530;51.448;7.238;2022-07-23T00:51:55;12.13;;;10.77;;
1082;SDS011;530;51.448;7.238;2022-07-23T00:54:22;15.57;;;10.90;;
1082;SDS011;530;51.448;7.238;2022-07-23T00:56:50;12.33;;;10.40;;
1082;SDS011;530;51.448;7.238;2022-07-23T00:59:16;13.30;;;11.43;;
1082;SDS011;530;51.448;7.238;2022-07-23T01:01:42;13.03;;;11.50;;
1082;SDS011;530;51.448;7.238;2022-07-23T01:04:09;12.40;;;10.83;;
1082;SDS011;530;51.448;7.238;2022-07-23T01:06:36;13.73;;;12.30;;
1082;SDS011;530;51.448;7.238;2022-07-23T01:09:04;16.13;;;12.70;;
1082;SDS011;530;51.448;7.238;2022-07-23T01:11:31;17.63;;;13.90;;
1082;SDS011;530;51.448;7.238;2022-07-23T01:14:14;14.73;;;11.93;;
1082;SDS011;530;51.448;7.238;2022-07-23T01:16:41;14.20;;;12.70;;
1082;SDS011;530;51.448;7.238;2022-07-23T01:19:09;14.30;;;12.23;;
1082;SDS011;530;51.448;7.238;2022-07-23T01:21:35;15.20;;;12.30;;
1082;SDS011;530;51.448;7.238;2022-07-23T01:24:02;14.77;;;13.13;;
1082;SDS011;530;51.448;7.238;2022-07-23T01:26:29;13.77;;;12.37;;
1082;SDS011;530;51.448;7.238;2022-07-23T01:28:54;13.90;;;12.37;;
1082;SDS011;530;51.448;7.238;2022-07-23T01:31:21;15.07;;;12.97;;
1082;SDS011;530;51.448;7.238;2022-07-23T01:33:47;15.50;;;13.03;;
1082;SDS011;530;51.448;7.238;2022-07-23T01:36:13;14.67;;;13.07;;
1082;SDS011;530;51.448;7.238;2022-07-23T01:38:39;14.73;;;13.10;;
1082;SDS011;530;51.448;7.238;2022-07-23T01:41:04;15.47;;;13.10;;
1082;SDS011;530;51.448;7.238;2022-07-23T01:43:30;15.97;;;13.10;;
1082;SDS011;530;51.448;7.238;2022-07-23T01:45:56;15.30;;;13.50;;
1082;SDS011;530;51.448;7.238;2022-07-23T01:48:21;16.50;;;12.50;;
1082;SDS011;530;51.448;7.238;2022-07-23T01:50:47;15.90;;;13.57;;
1082;SDS011;530;51.448;7.238;2022-07-23T01:53:14;14.30;;;12.80;;
1082;SDS011;530;51.448;7.238;2022-07-23T01:55:40;15.43;;;12.53;;
1082;SDS011;530;51.448;7.238;2022-07-23T01:58:06;14.73;;;13.10;;
1082;SDS011;530;51.448;7.238;2022-07-23T02:00:32;15.47;;;12.83;;
1082;SDS011;530;51.448;7.238;2022-07-23T02:02:58;17.60;;;14.30;;
1082;SDS011;530;51.448;7.238;2022-07-23T02:05:24;15.87;;;14.17;;
1082;SDS011;530;51.448;7.238;2022-07-23T02:07:50;15.77;;;14.07;;
1082;SDS011;530;51.448;7.238;2022-07-23T02:10:17;15.23;;;13.60;;
1082;SDS011;530;51.448;7.238;2022-07-23T02:12:43;15.90;;;14.30;;
1082;SDS011;530;51.448;7.238;2022-07-23T02:15:08;15.43;;;13.50;;
1082;SDS011;530;51.448;7.238;2022-07-23T02:17:34;16.27;;;14.00;;
1082;SDS011;530;51.448;7.238;2022-07-23T02:20:00;18.27;;;15.10;;
1082;SDS011;530;51.448;7.238;2022-07-23T02:22:26;16.40;;;14.70;;
1082;SDS011;530;51.448;7.238;2022-07-23T02:24:52;16.90;;;14.97;;
1082;SDS011;530;51.448;7.238;2022-07-23T02:27:17;17.23;;;14.77;;
1082;SDS011;530;51.448;7.238;2022-07-23T02:29:43;18.17;;;15.50;;
1082;SDS011;530;51.448;7.238;2022-07-23T02:32:09;17.23;;;14.77;;
1082;SDS011;530;51.448;7.238;2022-07-23T02:34:34;15.57;;;13.53;;
1082;SDS011;530;51.448;7.238;2022-07-23T02:37:00;19.57;;;15.97;;
1082;SDS011;530;51.448;7.238;2022-07-23T02:39:26;19.23;;;15.70;;
1082;SDS011;530;51.448;7.238;2022-07-23T02:41:52;19.10;;;15.17;;
1082;SDS011;530;51.448;7.238;2022-07-23T02:44:17;23.67;;;17.57;;
1082;SDS011;530;51.448;7.238;2022-07-23T02:46:43;18.73;;;15.53;;
1082;SDS011;530;51.448;7.238;2022-07-23T02:49:09;17.63;;;15.83;;
1082;SDS011;530;51.448;7.238;2022-07-23T02:51:34;18.67;;;15.70;;
1082;SDS011;530;51.448;7.238;2022-07-23T02:54:00;18.60;;;15.40;;
1082;SDS011;530;51.448;7.238;2022-07-23T02:56:26;19.57;;;17.33;;
1082;SDS011;530;51.448;7.238;2022-07-23T02:58:51;21.77;;;16.70;;
1082;SDS011;530;51.448;7.238;2022-07-23T03:01:17;21.70;;;16.87;;
1082;SDS011;530;51.448;7.238;2022-07-23T03:03:43;18.90;;;15.07;;
1082;SDS011;530;51.448;7.238;2022-07-23T03:06:09;16.37;;;14.23;;
1082;SDS011;530;51.448;7.238;2022-07-23T03:08:34;18.63;;;15.80;;
1082;SDS011;530;51.448;7.238;2022-07-23T03:11:00;21.60;;;15.67;;
1082;SDS011;530;51.448;7.238;2022-07-23T03:13:26;19.07;;;15.20;;
1082;SDS011;530;51.448;7.238;2022-07-23T03:15:52;16.50;;;14.17;;
1082;SDS011;530;51.448;7.238;2022-07-23T03:18:18;17.63;;;13.80;;
1082;SDS011;530;51.448;7.238;2022-07-23T03:20:43;21.70;;;16.10;;
1082;SDS011;530;51.448;7.238;2022-07-23T03:23:09;16.90;;;14.77;;
1082;SDS011;530;51.448;7.238;2022-07-23T03:25:35;21.20;;;16.47;;
1082;SDS011;530;51.448;7.238;2022-07-23T03:28:01;17.43;;;14.47;;
1082;SDS011;530;51.448;7.238;2022-07-23T03:30:27;22.20;;;15.03;;
1082;SDS011;530;51.448;7.238;2022-07-23T03:32:53;15.50;;;13.90;;
1082;SDS011;530;51.448;7.238;2022-07-23T03:35:18;17.33;;;13.77;;
1082;SDS011;530;51.448;7.238;2022-07-23T03:37:44;17.83;;;15.57;;
1082;SDS011;530;51.448;7.238;2022-07-23T03:40:10;15.57;;;13.47;;
1082;SDS011;530;51.448;7.238;2022-07-23T03:42:36;16.70;;;14.57;;
1082;SDS011;530;51.448;7.238;2022-07-23T03:45:03;15.27;;;13.00;;
1082;SDS011;530;51.448;7.238;2022-07-23T03:47:29;16.20;;;14.20;;
1082;SDS011;530;51.448;7.238;2022-07-23T03:49:55;15.03;;;13.53;;
1082;SDS011;530;51.448;7.238;2022-07-23T03:52:21;16.17;;;13.80;;
1082;SDS011;530;51.448;7.238;2022-07-23T03:54:46;15.17;;;13.23;;
1082;SDS011;530;51.448;7.238;2022-07-23T03:57:12;15.10;;;13.57;;
1082;SDS011;530;51.448;7.238;2022-07-23T03:59:38;14.43;;;12.73;;
1082;SDS011;530;51.448;7.238;2022-07-23T04:02:03;15.40;;;13.70;;
1082;SDS011;530;51.448;7.238;2022-07-23T04:04:29;15.33;;;13.73;;
1082;SDS011;530;51.448;7.238;2022-07-23T04:06:55;18.50;;;15.60;;
1082;SDS011;530;51.448;7.238;2022-07-23T04:09:20;15.10;;;13.27;;
1082;SDS011;530;51.448;7.238;2022-07-23T04:11:46;21.17;;;17.17;;
1082;SDS011;530;51.448;7.238;2022-07-23T04:14:12;20.53;;;17.00;;
1082;SDS011;530;51.448;7.238;2022-07-23T04:16:37;21.93;;;18.40;;
1082;SDS011;530;51.448;7.238;2022-07-23T04:19:03;28.60;;;19.43;;
1082;SDS011;530;51.448;7.238;2022-07-23T04:21:29;23.70;;;20.07;;
1082;SDS011;530;51.448;7.238;2022-07-23T04:23:55;21.13;;;17.57;;
1082;SDS011;530;51.448;7.238;2022-07-23T04:26:21;21.40;;;17.17;;
1082;SDS011;530;51.448;7.238;2022-07-23T04:28:47;21.83;;;17.50;;
1082;SDS011;530;51.448;7.238;2022-07-23T04:31:12;19.10;;;15.03;;
1082;SDS011;530;51.448;7.238;2022-07-23T04:33:38;20.37;;;17.90;;
1082;SDS011;530;51.448;7.238;2022-07-23T04:36:04;20.60;;;17.17;;
1082;SDS011;530;51.448;7.238;2022-07-23T04:38:30;19.20;;;16.27;;
1082;SDS011;530;51.448;7.238;2022-07-23T04:40:55;22.97;;;18.20;;
1082;SDS011;530;51.448;7.238;2022-07-23T04:43:21;22.73;;;18.37;;
1082;SDS011;530;51.448;7.238;2022-07-23T04:45:47;22.90;;;18.90;;
1082;SDS011;530;51.448;7.238;2022-07-23T04:48:12;24.20;;;17.50;;
1082;SDS011;530;51.448;7.238;2022-07-23T04:50:38;20.67;;;17.80;;
1082;SDS011;530;51.448;7.238;2022-07-23T04:53:04;19.27;;;17.20;;
1082;SDS011;530;51.448;7.238;2022-07-23T04:55:30;18.20;;;16.30;;
1082;SDS011;530;51.448;7.238;2022-07-23T04:57:55;17.90;;;16.10;;
1082;SDS011;530;51.448;7.238;2022-07-23T05:00:21;20.83;;;17.30;;
1082;SDS011;530;51.448;7.238;2022-07-23T05:02:47;21.00;;;17.57;;
1082;SDS011;530;51.448;7.238;2022-07-23T05:05:13;19.73;;;17.73;;
1082;SDS011;530;51.448;7.238;2022-07-23T05:07:38;20.90;;;17.90;;
1082;SDS011;530;51.448;7.238;2022-07-23T05:10:04;20.60;;;17.80;;
1082;SDS011;530;51.448;7.238;2022-07-23T05:12:30;19.37;;;17.37;;
1082;SDS011;530;51.448;7.238;2022-07-23T05:14:56;21.37;;;19.17;;
1082;SDS011;530;51.448;7.238;2022-07-23T05:17:21;22.70;;;19.07;;
1082;SDS011;530;51.448;7.238;2022-07-23T05:19:47;20.80;;;18.60;;
1082;SDS011;530;51.448;7.238;2022-07-23T05:22:12;19.37;;;17.30;;
1082;SDS011;530;51.448;7.238;2022-07-23T05:24:38;20.63;;;17.93;;
1082;SDS011;530;51.448;7.238;2022-07-23T05:27:04;17.57;;;15.73;;
1082;SDS011;530;51.448;7.238;2022-07-23T05:29:30;18.53;;;16.40;;
1082;SDS011;530;51.448;7.238;2022-07-23T05:31:55;18.73;;;16.63;;
1082;SDS011;530;51.448;7.238;2022-07-23T05:34:21;18.47;;;16.57;;
1082;SDS011;530;51.448;7.238;2022-07-23T05:36:47;20.93;;;18.47;;
1082;SDS011;530;51.448;7.238;2022-07-23T05:39:13;23.37;;;20.23;;
1082;SDS011;530;51.448;7.238;2022-07-23T05:41:39;21.37;;;18.80;;
1082;SDS011;530;51.448;7.238;2022-07-23T05:44:05;27.10;;;20.83;;
1082;SDS011;530;51.448;7.238;2022-07-23T05:46:31;24.20;;;20.70;;
1082;SDS011;530;51.448;7.238;2022-07-23T05:48:56;25.77;;;22.80;;
1082;SDS011;530;51.448;7.238;2022-07-23T05:51:23;25.37;;;20.40;;
1082;SDS011;530;51.448;7.238;2022-07-23T05:53:49;24.83;;;20.57;;
1082;SDS011;530;51.448;7.238;2022-07-23T05:56:16;31.23;;;23.93;;
1082;SDS011;530;51.448;7.238;2022-07-23T05:58:42;27.00;;;23.30;;
1082;SDS011;530;51.448;7.238;2022-07-23T06:01:08;27.47;;;22.50;;
1082;SDS011;530;51.448;7.238;2022-07-23T06:03:34;26.13;;;22.40;;
1082;SDS011;530;51.448;7.238;2022-07-23T06:06:00;29.90;;;23.90;;
1082;SDS011;530;51.448;7.238;2022-07-23T06:08:26;30.83;;;23.33;;
1082;SDS011;530;51.448;7.238;2022-07-23T06:10:51;29.37;;;23.37;;
1082;SDS011;530;51.448;7.238;2022-07-23T06:13:17;25.50;;;21.90;;
1082;SDS011;530;51.448;7.238;2022-07-23T06:15:43;26.23;;;21.30;;
1082;SDS011;530;51.448;7.238;2022-07-23T06:18:09;28.27;;;21.30;;
1082;SDS011;530;51.448;7.238;2022-07-23T06:20:35;27.33;;;23.07;;
1082;SDS011;530;51.448;7.238;2022-07-23T06:23:00;29.90;;;24.70;;
1082;SDS011;530;51.448;7.238;2022-07-23T06:25:26;29.27;;;23.83;;
1082;SDS011;530;51.448;7.238;2022-07-23T06:27:52;26.50;;;22.30;;
1082;SDS011;530;51.448;7.238;2022-07-23T06:30:17;25.17;;;21.10;;
1082;SDS011;530;51.448;7.238;2022-07-23T06:32:44;29.40;;;23.40;;
1082;SDS011;530;51.448;7.238;2022-07-23T06:35:10;25.63;;;22.27;;
1082;SDS011;530;51.448;7.238;2022-07-23T06:37:36;23.90;;;20.47;;
1082;SDS011;530;51.448;7.238;2022-07-23T06:40:02;25.77;;;22.30;;
1082;SDS011;530;51.448;7.238;2022-07-23T06:42:28;24.17;;;21.60;;
1082;SDS011;530;51.448;7.238;2022-07-23T06:44:54;28.83;;;22.60;;
1082;SDS011;530;51.448;7.238;2022-07-23T06:47:19;27.07;;;22.97;;
1082;SDS011;530;51.448;7.238;2022-07-23T06:49:45;27.30;;;24.33;;
1082;SDS011;530;51.448;7.238;2022-07-23T06:52:11;32.20;;;25.33;;
1082;SDS011;530;51.448;7.238;2022-07-23T06:54:36;30.73;;;24.30;;
1082;SDS011;530;51.448;7.238;2022-07-23T06:57:02;31.53;;;26.97;;
1082;SDS011;530;51.448;7.238;2022-07-23T06:59:28;33.13;;;25.63;;
1082;SDS011;530;51.448;7.238;2022-07-23T07:01:54;30.43;;;25.13;;
1082;SDS011;530;51.448;7.238;2022-07-23T07:04:19;34.80;;;27.40;;
1082;SDS011;530;51.448;7.238;2022-07-23T07:06:45;32.90;;;25.90;;
1082;SDS011;530;51.448;7.238;2022-07-23T07:09:11;26.43;;;23.23;;
1082;SDS011;530;51.448;7.238;2022-07-23T07:11:36;33.83;;;26.07;;
1082;SDS011;530;51.448;7.238;2022-07-23T07:14:02;32.53;;;26.37;;
1082;SDS011;530;51.448;7.238;2022-07-23T07:16:29;33.87;;;27.37;;
1082;SDS011;530;51.448;7.238;2022-07-23T07:18:55;29.63;;;25.27;;
1082;SDS011;530;51.448;7.238;2022-07-23T07:21:21;25.70;;;21.90;;
1082;SDS011;530;51.448;7.238;2022-07-23T07:23:46;28.43;;;23.17;;
1082;SDS011;530;51.448;7.238;2022-07-23T07:26:12;30.27;;;24.57;;
1082;SDS011;530;51.448;7.238;2022-07-23T07:28:38;27.80;;;24.20;;
1082;SDS011;530;51.448;7.238;2022-07-23T07:31:03;28.00;;;22.70;;
1082;SDS011;530;51.448;7.238;2022-07-23T07:33:29;27.33;;;23.13;;
1082;SDS011;530;51.448;7.238;2022-07-23T07:35:55;27.70;;;22.63;;
1082;SDS011;530;51.448;7.238;2022-07-23T07:38:20;28.70;;;23.17;;
1082;SDS011;530;51.448;7.238;2022-07-23T07:40:46;29.00;;;24.30;;
1082;SDS011;530;51.448;7.238;2022-07-23T07:43:12;28.77;;;23.00;;
1082;SDS011;530;51.448;7.238;2022-07-23T07:45:37;24.40;;;21.80;;
1082;SDS011;530;51.448;7.238;2022-07-23T07:48:04;25.73;;;22.13;;
1082;SDS011;530;51.448;7.238;2022-07-23T07:50:30;21.73;;;19.43;;
1082;SDS011;530;51.448;7.238;2022-07-23T07:52:55;24.13;;;20.27;;
1082;SDS011;530;51.448;7.238;2022-07-23T07:55:21;23.10;;;19.53;;
1082;SDS011;530;51.448;7.238;2022-07-23T07:57:47;21.27;;;17.50;;
1082;SDS011;530;51.448;7.238;2022-07-23T08:00:13;20.10;;;18.00;;
1082;SDS011;530;51.448;7.238;2022-07-23T08:02:42;24.27;;;19.40;;
1082;SDS011;530;51.448;7.238;2022-07-23T08:05:18;18.83;;;17.03;;
1082;SDS011;530;51.448;7.238;2022-07-23T08:07:51;20.43;;;18.30;;
1082;SDS011;530;51.448;7.238;2022-07-23T08:10:17;18.93;;;16.93;;
1082;SDS011;530;51.448;7.238;2022-07-23T08:12:54;19.27;;;17.23;;
1082;SDS011;530;51.448;7.238;2022-07-23T08:15:22;19.07;;;16.03;;
1082;SDS011;530;51.448;7.238;2022-07-23T08:17:49;20.00;;;16.33;;
1082;SDS011;530;51.448;7.238;2022-07-23T08:20:15;18.40;;;16.50;;
1082;SDS011;530;51.448;7.238;2022-07-23T08:25:30;21.53;;;18.47;;
1082;SDS011;530;51.448;7.238;2022-07-23T08:27:58;18.90;;;16.93;;
1082;SDS011;530;51.448;7.238;2022-07-23T08:30:25;19.97;;;18.10;;
1082;SDS011;530;51.448;7.238;2022-07-23T08:32:55;20.87;;;18.97;;
1082;SDS011;530;51.448;7.238;2022-07-23T08:35:31;19.97;;;18.17;;
1082;SDS011;530;51.448;7.238;2022-07-23T08:38:02;22.10;;;20.00;;
1082;SDS011;530;51.448;7.238;2022-07-23T08:40:30;21.20;;;19.20;;
1082;SDS011;530;51.448;7.238;2022-07-23T08:42:58;20.43;;;18.37;;
1082;SDS011;530;51.448;7.238;2022-07-23T08:45:25;21.27;;;19.40;;
1082;SDS011;530;51.448;7.238;2022-07-23T08:47:53;23.33;;;21.30;;
1082;SDS011;530;51.448;7.238;2022-07-23T08:50:21;21.63;;;19.63;;
1082;SDS011;530;51.448;7.238;2022-07-23T08:52:51;22.20;;;20.40;;
1082;SDS011;530;51.448;7.238;2022-07-23T08:55:18;21.27;;;19.17;;
1082;SDS011;530;51.448;7.238;2022-07-23T08:57:50;21.70;;;19.87;;
1082;SDS011;530;51.448;7.238;2022-07-23T09:00:18;18.67;;;16.97;;
1082;SDS011;530;51.448;7.238;2022-07-23T09:02:46;22.47;;;20.30;;
1082;SDS011;530;51.448;7.238;2022-07-23T09:05:13;25.57;;;23.43;;
1082;SDS011;530;51.448;7.238;2022-07-23T09:10:43;24.20;;;22.10;;
1082;SDS011;530;51.448;7.238;2022-07-23T09:16:05;23.00;;;21.10;;
1082;SDS011;530;51.448;7.238;2022-07-23T09:18:46;22.47;;;20.27;;
1082;SDS011;530;51.448;7.238;2022-07-23T09:26:21;22.27;;;20.47;;
1082;SDS011;530;51.448;7.238;2022-07-23T09:28:55;23.60;;;21.57;;
1082;SDS011;530;51.448;7.238;2022-07-23T09:31:24;24.07;;;21.97;;
1082;SDS011;530;51.448;7.238;2022-07-23T09:34:05;20.10;;;18.40;;
1082;SDS011;530;51.448;7.238;2022-07-23T09:36:33;23.37;;;21.37;;
1082;SDS011;530;51.448;7.238;2022-07-23T09:38:59;21.83;;;19.87;;
1082;SDS011;530;51.448;7.238;2022-07-23T09:41:25;21.50;;;19.80;;
1082;SDS011;530;51.448;7.238;2022-07-23T09:44:07;22.70;;;20.70;;
1082;SDS011;530;51.448;7.238;2022-07-23T09:46:34;19.57;;;17.93;;
1082;SDS011;530;51.448;7.238;2022-07-23T09:49:00;22.00;;;20.00;;
1082;SDS011;530;51.448;7.238;2022-07-23T09:51:44;21.33;;;19.63;;
1082;SDS011;530;51.448;7.238;2022-07-23T09:54:47;20.77;;;18.80;;
1082;SDS011;530;51.448;7.238;2022-07-23T09:57:10;16.67;;;15.17;;
1082;SDS011;530;51.448;7.238;2022-07-23T09:59:41;15.50;;;14.07;;
1082;SDS011;530;51.448;7.238;2022-07-23T10:02:09;13.73;;;12.43;;
1082;SDS011;530;51.448;7.238;2022-07-23T10:04:37;14.60;;;13.30;;
1082;SDS011;530;51.448;7.238;2022-07-23T10:07:04;16.23;;;14.73;;
1082;SDS011;530;51.448;7.238;2022-07-23T10:09:32;15.60;;;14.30;;
1082;SDS011;530;51.448;7.238;2022-07-23T10:12:01;13.03;;;11.73;;
1082;SDS011;530;51.448;7.238;2022-07-23T10:14:34;11.20;;;10.20;;
1082;SDS011;530;51.448;7.238;2022-07-23T10:17:01;9.70;;;8.70;;
1082;SDS011;530;51.448;7.238;2022-07-23T10:19:29;9.97;;;9.10;;
1082;SDS011;530;51.448;7.238;2022-07-23T10:30:09;8.77;;;8.07;;
1082;SDS011;530;51.448;7.238;2022-07-23T10:38:02;8.87;;;8.10;;
1082;SDS011;530;51.448;7.238;2022-07-23T10:40:37;8.40;;;7.67;;
1082;SDS011;530;51.448;7.238;2022-07-23T10:43:21;8.53;;;6.00;;
1082;SDS011;530;51.448;7.238;2022-07-23T10:45:47;8.30;;;7.57;;
1082;SDS011;530;51.448;7.238;2022-07-23T10:50:42;7.60;;;7.00;;
1082;SDS011;530;51.448;7.238;2022-07-23T10:58:07;7.00;;;6.40;;
1082;SDS011;530;51.448;7.238;2022-07-23T11:00:34;8.87;;;7.60;;
1082;SDS011;530;51.448;7.238;2022-07-23T11:03:02;8.30;;;7.60;;
1082;SDS011;530;51.448;7.238;2022-07-23T11:05:50;7.60;;;7.00;;
1082;SDS011;530;51.448;7.238;2022-07-23T11:08:17;7.57;;;6.90;;
1082;SDS011;530;51.448;7.238;2022-07-23T11:31:58;5.63;;;5.13;;
1082;SDS011;530;51.448;7.238;2022-07-23T11:34:31;6.33;;;4.33;;
1082;SDS011;530;51.448;7.238;2022-07-23T11:37:08;5.90;;;5.30;;
1082;SDS011;530;51.448;7.238;2022-07-23T11:39:35;4.63;;;4.23;;
1082;SDS011;530;51.448;7.238;2022-07-23T11:42:02;5.30;;;4.80;;
1082;SDS011;530;51.448;7.238;2022-07-23T11:44:33;7.07;;;6.47;;
1082;SDS011;530;51.448;7.238;2022-07-23T11:47:01;5.70;;;5.20;;
1082;SDS011;530;51.448;7.238;2022-07-23T11:49:27;6.07;;;5.47;;
1082;SDS011;530;51.448;7.238;2022-07-23T11:54:31;4.30;;;3.90;;
1082;SDS011;530;51.448;7.238;2022-07-23T11:56:58;4.83;;;4.40;;
1082;SDS011;530;51.448;7.238;2022-07-23T11:59:26;4.93;;;4.40;;
1082;SDS011;530;51.448;7.238;2022-07-23T12:01:57;4.33;;;4.03;;
1082;SDS011;530;51.448;7.238;2022-07-23T12:04:24;5.57;;;4.97;;
1082;SDS011;530;51.448;7.238;2022-07-23T12:07:01;5.07;;;4.67;;
1082;SDS011;530;51.448;7.238;2022-07-23T12:09:27;4.17;;;3.77;;
1082;SDS011;530;51.448;7.238;2022-07-23T12:11:59;5.40;;;4.30;;
1082;SDS011;530;51.448;7.238;2022-07-23T12:14:25;4.60;;;4.13;;
1082;SDS011;530;51.448;7.238;2022-07-23T12:17:07;4.40;;;3.90;;
1082;SDS011;530;51.448;7.238;2022-07-23T12:19:36;4.30;;;3.90;;
1082;SDS011;530;51.448;7.238;2022-07-23T12:22:02;3.50;;;3.20;;
1082;SDS011;530;51.448;7.238;2022-07-23T12:24:28;3.67;;;3.37;;
1082;SDS011;530;51.448;7.238;2022-07-23T12:27:09;3.73;;;3.20;;
1082;SDS011;530;51.448;7.238;2022-07-23T12:29:39;10.00;;;3.90;;
1082;SDS011;530;51.448;7.238;2022-07-23T12:32:20;3.83;;;3.53;;
1082;SDS011;530;51.448;7.238;2022-07-23T12:34:48;4.47;;;3.67;;
1082;SDS011;530;51.448;7.238;2022-07-23T12:37:28;7.50;;;4.33;;
1082;SDS011;530;51.448;7.238;2022-07-23T12:39:58;4.30;;;3.37;;
1082;SDS011;530;51.448;7.238;2022-07-23T12:42:42;4.10;;;3.40;;
1082;SDS011;530;51.448;7.238;2022-07-23T12:45:09;3.70;;;3.30;;
1082;SDS011;530;51.448;7.238;2022-07-23T12:50:34;3.27;;;2.87;;
1082;SDS011;530;51.448;7.238;2022-07-23T12:53:07;4.07;;;3.77;;
1082;SDS011;530;51.448;7.238;2022-07-23T12:55:35;4.50;;;4.10;;
1082;SDS011;530;51.448;7.238;2022-07-23T12:58:03;4.03;;;3.73;;
1082;SDS011;530;51.448;7.238;2022-07-23T13:00:30;3.10;;;2.90;;
1082;SDS011;530;51.448;7.238;2022-07-23T13:02:57;4.20;;;3.80;;
1082;SDS011;530;51.448;7.238;2022-07-23T13:05:23;3.87;;;3.57;;
1082;SDS011;530;51.448;7.238;2022-07-23T13:07:48;3.60;;;3.30;;
1082;SDS011;530;51.448;7.238;2022-07-23T13:10:14;4.20;;;3.90;;
1082;SDS011;530;51.448;7.238;2022-07-23T13:12:40;4.13;;;3.73;;
1082;SDS011;530;51.448;7.238;2022-07-23T13:15:06;2.70;;;2.50;;
1082;SDS011;530;51.448;7.238;2022-07-23T13:17:32;3.00;;;2.80;;
1082;SDS011;530;51.448;7.238;2022-07-23T13:19:58;3.27;;;3.07;;
1082;SDS011;530;51.448;7.238;2022-07-23T13:22:23;4.27;;;3.70;;
1082;SDS011;530;51.448;7.238;2022-07-23T13:24:49;3.60;;;3.30;;
1082;SDS011;530;51.448;7.238;2022-07-23T13:27:15;4.40;;;4.10;;
1082;SDS011;530;51.448;7.238;2022-07-23T13:29:40;4.03;;;3.70;;
1082;SDS011;530;51.448;7.238;2022-07-23T13:32:06;4.00;;;3.70;;
1082;SDS011;530;51.448;7.238;2022-07-23T13:34:32;3.50;;;3.20;;
1082;SDS011;530;51.448;7.238;2022-07-23T13:36:57;5.23;;;3.83;;
1082;SDS011;530;51.448;7.238;2022-07-23T13:39:23;3.20;;;3.00;;
1082;SDS011;530;51.448;7.238;2022-07-23T13:41:49;4.23;;;3.90;;
1082;SDS011;530;51.448;7.238;2022-07-23T13:44:15;3.20;;;3.00;;
1082;SDS011;530;51.448;7.238;2022-07-23T13:46:40;4.40;;;3.47;;
1082;SDS011;530;51.448;7.238;2022-07-23T13:49:06;3.97;;;3.60;;
1082;SDS011;530;51.448;7.238;2022-07-23T13:51:32;3.20;;;3.00;;
1082;SDS011;530;51.448;7.238;2022-07-23T13:53:57;3.50;;;3.20;;
1082;SDS011;530;51.448;7.238;2022-07-23T13:56:24;2.93;;;2.73;;
1082;SDS011;530;51.448;7.238;2022-07-23T13:58:50;3.70;;;3.27;;
1082;SDS011;530;51.448;7.238;2022-07-23T14:01:15;3.37;;;2.90;;
1082;SDS011;530;51.448;7.238;2022-07-23T14:03:41;3.43;;;3.13;;
1082;SDS011;530;51.448;7.238;2022-07-23T14:06:07;3.17;;;2.87;;
1082;SDS011;530;51.448;7.238;2022-07-23T14:08:32;3.50;;;3.20;;
1082;SDS011;530;51.448;7.238;2022-07-23T14:10:58;4.30;;;3.90;;
1082;SDS011;530;51.448;7.238;2022-07-23T14:13:24;4.10;;;3.07;;
1082;SDS011;530;51.448;7.238;2022-07-23T14:15:49;3.50;;;3.20;;
1082;SDS011;530;51.448;7.238;2022-07-23T14:18:15;3.83;;;3.53;;
1082;SDS011;530;51.448;7.238;2022-07-23T14:20:41;5.43;;;2.90;;
1082;SDS011;530;51.448;7.238;2022-07-23T14:23:07;3.20;;;2.90;;
1082;SDS011;530;51.448;7.238;2022-07-23T14:25:33;3.90;;;3.00;;
1082;SDS011;530;51.448;7.238;2022-07-23T14:27:58;3.60;;;3.30;;
1082;SDS011;530;51.448;7.238;2022-07-23T14:30:24;3.70;;;3.40;;
1082;SDS011;530;51.448;7.238;2022-07-23T14:32:50;4.30;;;3.63;;
1082;SDS011;530;51.448;7.238;2022-07-23T14:35:16;5.43;;;4.00;;
1082;SDS011;530;51.448;7.238;2022-07-23T14:37:43;5.77;;;3.67;;
1082;SDS011;530;51.448;7.238;2022-07-23T14:40:09;4.07;;;3.77;;
1082;SDS011;530;51.448;7.238;2022-07-23T14:42:35;4.10;;;3.70;;
1082;SDS011;530;51.448;7.238;2022-07-23T14:45:00;4.50;;;4.10;;
1082;SDS011;530;51.448;7.238;2022-07-23T14:47:26;3.80;;;3.50;;
1082;SDS011;530;51.448;7.238;2022-07-23T14:49:52;4.30;;;3.90;;
1082;SDS011;530;51.448;7.238;2022-07-23T14:52:18;4.27;;;3.40;;
1082;SDS011;530;51.448;7.238;2022-07-23T14:54:43;3.80;;;3.50;;
1082;SDS011;530;51.448;7.238;2022-07-23T14:57:09;4.23;;;3.83;;
1082;SDS011;530;51.448;7.238;2022-07-23T14:59:35;4.20;;;3.90;;
1082;SDS011;530;51.448;7.238;2022-07-23T15:02:00;4.00;;;3.70;;
1082;SDS011;530;51.448;7.238;2022-07-23T15:04:26;4.27;;;3.83;;
1082;SDS011;530;51.448;7.238;2022-07-23T15:06:52;5.60;;;3.73;;
1082;SDS011;530;51.448;7.238;2022-07-23T15:09:18;4.40;;;4.00;;
1082;SDS011;530;51.448;7.238;2022-07-23T15:11:44;3.97;;;3.67;;
1082;SDS011;530;51.448;7.238;2022-07-23T15:14:09;5.40;;;4.00;;
1082;SDS011;530;51.448;7.238;2022-07-23T15:16:35;5.17;;;3.97;;
1082;SDS011;530;51.448;7.238;2022-07-23T15:19:02;4.07;;;3.77;;
1082;SDS011;530;51.448;7.238;2022-07-23T15:21:28;4.10;;;3.40;;
1082;SDS011;530;51.448;7.238;2022-07-23T15:23:57;3.17;;;2.97;;
1082;SDS011;530;51.448;7.238;2022-07-23T15:26:24;3.80;;;3.50;;
1082;SDS011;530;51.448;7.238;2022-07-23T15:28:54;3.70;;;3.23;;
1082;SDS011;530;51.448;7.238;2022-07-23T15:31:20;4.30;;;3.90;;
1082;SDS011;530;51.448;7.238;2022-07-23T15:33:46;4.80;;;4.20;;
1082;SDS011;530;51.448;7.238;2022-07-23T15:36:12;3.87;;;3.57;;
1082;SDS011;530;51.448;7.238;2022-07-23T15:38:38;4.00;;;3.60;;
1082;SDS011;530;51.448;7.238;2022-07-23T15:41:04;5.03;;;3.90;;
1082;SDS011;530;51.448;7.238;2022-07-23T15:43:29;4.50;;;3.70;;
1082;SDS011;530;51.448;7.238;2022-07-23T15:45:56;3.23;;;3.03;;
1082;SDS011;530;51.448;7.238;2022-07-23T15:48:22;4.00;;;3.67;;
1082;SDS011;530;51.448;7.238;2022-07-23T15:50:48;4.20;;;3.83;;
1082;SDS011;530;51.448;7.238;2022-07-23T15:53:14;4.10;;;3.70;;
1082;SDS011;530;51.448;7.238;2022-07-23T15:55:40;3.90;;;3.63;;
1082;SDS011;530;51.448;7.238;2022-07-23T15:58:08;4.20;;;3.80;;
1082;SDS011;530;51.448;7.238;2022-07-23T16:00:35;3.63;;;3.40;;
1082;SDS011;530;51.448;7.238;2022-07-23T16:03:01;4.60;;;4.20;;
1082;SDS011;530;51.448;7.238;2022-07-23T16:05:27;4.03;;;3.73;;
1082;SDS011;530;51.448;7.238;2022-07-23T16:07:52;4.73;;;4.33;;
1082;SDS011;530;51.448;7.238;2022-07-23T16:10:18;4.67;;;4.30;;
1082;SDS011;530;51.448;7.238;2022-07-23T16:12:45;4.40;;;4.10;;
1082;SDS011;530;51.448;7.238;2022-07-23T16:15:12;4.17;;;3.77;;